createdAt,value
2022-08-05T00:00:54.308Z,3.59
2022-08-05T00:03:21.573Z,3.53
2022-08-05T00:06:04.777Z,3.30
2022-08-05T00:08:36.506Z,3.29
2022-08-05T00:11:03.798Z,3.06
2022-08-05T00:13:38.207Z,3.38
2022-08-05T00:16:08.430Z,3.10
2022-08-05T00:18:35.921Z,2.82
2022-08-05T00:21:05.201Z,2.85
2022-08-05T00:23:45.850Z,3.04
2022-08-05T00:26:14.406Z,2.84
2022-08-05T00:28:43.657Z,2.91
2022-08-05T00:31:13.098Z,3.11
2022-08-05T00:34:56.345Z,3.11
2022-08-05T00:37:10.449Z,2.90
2022-08-05T00:39:14.930Z,3.08
2022-08-05T00:41:51.539Z,3.05
2022-08-05T00:44:20.872Z,3.01
2022-08-05T00:46:54.107Z,3.06
2022-08-05T00:49:32.820Z,2.98
2022-08-05T00:52:00.276Z,3.11
2022-08-05T00:54:28.103Z,3.07
2022-08-05T00:56:57.391Z,3.16
2022-08-05T00:59:24.657Z,3.23
2022-08-05T01:01:52.026Z,3.08
2022-08-05T01:04:20.072Z,3.09
2022-08-05T01:06:53.830Z,3.13
2022-08-05T01:09:22.329Z,3.16
2022-08-05T01:11:49.999Z,3.16
2022-08-05T01:14:28.227Z,3.25
2022-08-05T01:16:55.891Z,3.21
2022-08-05T01:19:36.766Z,3.49
2022-08-05T01:22:15.451Z,2.97
2022-08-05T01:24:46.187Z,3.39
2022-08-05T01:27:19.477Z,3.26
2022-08-05T01:29:49.400Z,3.34
2022-08-05T01:32:19.074Z,3.20
2022-08-05T01:34:46.314Z,3.12
2022-08-05T01:37:24.677Z,3.39
2022-08-05T01:39:52.665Z,3.13
2022-08-05T01:42:21.465Z,3.40
2022-08-05T01:44:54.274Z,3.47
2022-08-05T01:47:22.238Z,3.57
2022-08-05T01:50:01.795Z,3.60
2022-08-05T01:52:29.981Z,3.33
2022-08-05T01:54:57.652Z,3.09
2022-08-05T01:58:13.194Z,3.23
2022-08-05T02:00:12.463Z,3.25
2022-08-05T02:02:51.162Z,3.55
2022-08-05T02:05:23.521Z,3.09
2022-08-05T02:08:00.983Z,3.18
2022-08-05T02:10:28.850Z,3.22
2022-08-05T02:12:56.150Z,3.36
2022-08-05T02:15:23.446Z,3.26
2022-08-05T02:18:31.407Z,3.34
2022-08-05T02:20:38.939Z,3.30
2022-08-05T02:23:06.554Z,3.57
2022-08-05T02:25:49.104Z,3.32
2022-08-05T02:28:17.988Z,3.30
2022-08-05T02:30:56.564Z,3.34
2022-08-05T02:33:24.557Z,3.33
2022-08-05T02:36:03.578Z,3.22
2022-08-05T02:38:35.386Z,3.23
2022-08-05T02:41:14.535Z,3.28
2022-08-05T02:44:06.639Z,3.46
2022-08-05T02:46:31.897Z,3.28
2022-08-05T02:48:59.683Z,3.28
2022-08-05T02:51:28.509Z,3.33
2022-08-05T02:54:35.755Z,3.42
2022-08-05T02:57:01.415Z,3.18
2022-08-05T02:59:28.685Z,3.16
2022-08-05T03:02:01.959Z,3.15
2022-08-05T03:04:29.375Z,3.22
2022-08-05T03:06:59.344Z,3.51
2022-08-05T03:09:36.273Z,3.46
2022-08-05T03:12:06.069Z,3.62
2022-08-05T03:14:33.337Z,3.49
2022-08-05T03:17:00.893Z,3.63
2022-08-05T03:19:33.412Z,3.36
2022-08-05T03:22:05.012Z,3.64
2022-08-05T03:24:38.556Z,3.72
2022-08-05T03:27:06.621Z,3.41
2022-08-05T03:29:45.808Z,3.42
2022-08-05T03:32:21.454Z,3.46
2022-08-05T03:34:58.356Z,3.56
2022-08-05T03:37:26.056Z,3.51
2022-08-05T03:39:59.138Z,3.53
2022-08-05T03:42:28.953Z,3.36
2022-08-05T03:44:57.079Z,3.22
2022-08-05T03:47:24.636Z,3.45
2022-08-05T03:49:52.582Z,3.33
2022-08-05T03:52:38.610Z,3.50
2022-08-05T03:56:06.097Z,3.44
2022-08-05T03:57:54.292Z,3.47
2022-08-05T04:00:21.648Z,3.47
2022-08-05T04:02:57.903Z,3.73
2022-08-05T04:05:26.166Z,3.51
2022-08-05T04:07:58.745Z,3.51
2022-08-05T04:10:27.548Z,3.57
2022-08-05T04:13:14.121Z,3.46
2022-08-05T04:16:02.973Z,3.44
2022-08-05T04:18:28.609Z,3.61
2022-08-05T04:20:56.984Z,3.55
2022-08-05T04:24:04.766Z,3.88
2022-08-05T04:26:11.512Z,3.77
2022-08-05T04:28:50.712Z,3.73
2022-08-05T04:31:21.313Z,3.54
2022-08-05T04:34:19.125Z,3.78
2022-08-05T04:36:46.213Z,3.62
2022-08-05T04:39:17.226Z,3.57
2022-08-05T04:41:45.637Z,3.84
2022-08-05T04:44:13.040Z,3.62
2022-08-05T04:46:40.287Z,3.71
2022-08-05T04:49:12.163Z,3.40
2022-08-05T04:51:41.680Z,3.81
2022-08-05T04:54:09.944Z,3.74
2022-08-05T04:56:37.511Z,3.68
2022-08-05T04:59:22.288Z,3.49
2022-08-05T05:02:35.737Z,3.68
2022-08-05T05:04:43.979Z,3.75
2022-08-05T05:07:15.998Z,3.71
2022-08-05T05:09:46.463Z,3.69
2022-08-05T05:12:13.719Z,3.50
2022-08-05T05:14:49.265Z,3.60
2022-08-05T05:17:23.314Z,3.67
2022-08-05T05:19:51.363Z,3.82
2022-08-05T05:22:23.713Z,3.83
2022-08-05T05:24:56.987Z,3.59
2022-08-05T05:27:44.499Z,3.68
2022-08-05T05:30:28.779Z,3.88
2022-08-05T05:33:00.396Z,3.69
2022-08-05T05:35:38.110Z,3.65
2022-08-05T05:38:09.340Z,3.77
2022-08-05T05:40:48.019Z,3.90
2022-08-05T05:43:27.875Z,3.88
2022-08-05T05:46:05.127Z,3.69
2022-08-05T05:48:33.077Z,3.81
2022-08-05T05:51:13.035Z,3.81
2022-08-05T05:53:54.387Z,3.80
2022-08-05T05:56:32.656Z,3.97
2022-08-05T05:59:03.452Z,4.00
2022-08-05T06:01:37.627Z,4.53
2022-08-05T06:04:05.915Z,4.30
2022-08-05T06:06:34.979Z,4.21
2022-08-05T06:09:03.956Z,4.30
2022-08-05T06:11:31.468Z,4.21
2022-08-05T06:14:00.349Z,4.22
2022-08-05T06:16:36.733Z,4.40
2022-08-05T06:19:05.773Z,4.54
2022-08-05T06:21:37.055Z,4.99
2022-08-05T06:24:05.022Z,4.14
2022-08-05T06:26:33.953Z,4.09
2022-08-05T06:29:03.366Z,4.22
2022-08-05T06:31:33.748Z,4.69
2022-08-05T06:34:07.817Z,4.40
2022-08-05T06:36:37.453Z,4.48
2022-08-05T06:39:26.849Z,4.22
2022-08-05T06:41:54.725Z,4.50
2022-08-05T06:44:22.232Z,4.23
2022-08-05T06:46:50.760Z,4.17
2022-08-05T06:49:18.817Z,4.42
2022-08-05T06:51:50.459Z,4.70
2022-08-05T06:54:18.207Z,5.38
2022-08-05T06:56:54.858Z,4.75
2022-08-05T06:59:38.817Z,4.07
2022-08-05T07:02:09.534Z,4.12
2022-08-05T07:04:36.815Z,4.17
2022-08-05T07:07:08.045Z,4.26
2022-08-05T07:09:37.434Z,4.05
2022-08-05T07:12:07.949Z,4.03
2022-08-05T07:14:35.494Z,4.03
2022-08-05T07:18:00.457Z,4.22
2022-08-05T07:20:32.050Z,4.15
2022-08-05T07:22:37.398Z,4.33
2022-08-05T07:25:23.720Z,4.28
2022-08-05T07:28:00.670Z,4.32
2022-08-05T07:30:32.462Z,4.22
2022-08-05T07:33:00.585Z,4.42
2022-08-05T07:36:01.624Z,5.06
2022-08-05T07:38:32.710Z,4.50
2022-08-05T07:41:16.732Z,4.65
2022-08-05T07:43:49.037Z,4.62
2022-08-05T07:46:24.674Z,4.65
2022-08-05T07:49:02.070Z,4.61
2022-08-05T07:51:37.308Z,4.95
2022-08-05T07:54:10.098Z,4.48
2022-08-05T07:57:00.474Z,4.46
2022-08-05T07:59:39.058Z,4.58
2022-08-05T08:02:10.625Z,4.80
2022-08-05T08:04:44.892Z,5.04
2022-08-05T08:07:12.513Z,4.96
2022-08-05T08:09:39.868Z,5.22
2022-08-05T08:12:17.186Z,5.28
2022-08-05T08:14:54.371Z,5.36
2022-08-05T08:17:21.968Z,5.32
2022-08-05T08:20:43.194Z,5.14
2022-08-05T08:22:36.772Z,5.44
2022-08-05T08:25:15.733Z,5.25
2022-08-05T08:27:47.883Z,5.37
2022-08-05T08:32:27.693Z,5.38
2022-08-05T08:34:55.517Z,5.51
2022-08-05T08:37:28.089Z,5.76
2022-08-05T08:39:55.533Z,5.68
2022-08-05T08:42:34.216Z,5.53
2022-08-05T08:45:25.162Z,5.67
2022-08-05T08:48:12.330Z,5.53
2022-08-05T08:51:07.733Z,5.82
2022-08-05T08:55:19.667Z,5.46
2022-08-05T08:58:02.968Z,6.05
2022-08-05T09:00:30.465Z,5.65
2022-08-05T09:02:58.067Z,5.87
2022-08-05T09:05:38.395Z,5.48
2022-08-05T09:08:13.824Z,5.65
2022-08-05T09:10:42.306Z,5.37
2022-08-05T09:13:14.254Z,5.28
2022-08-05T09:15:43.132Z,4.86
2022-08-05T09:18:10.449Z,4.58
2022-08-05T09:20:40.829Z,4.80
2022-08-05T09:23:54.989Z,4.52
2022-08-05T09:26:25.765Z,5.13
2022-08-05T09:28:59.639Z,5.05
2022-08-05T09:32:41.271Z,4.60
2022-08-05T09:34:14.151Z,4.61
2022-08-05T09:36:54.115Z,4.58
2022-08-05T09:39:22.886Z,5.20
2022-08-05T09:41:56.097Z,5.20
2022-08-05T09:44:23.676Z,5.19
2022-08-05T09:46:53.484Z,4.95
2022-08-05T09:49:40.359Z,5.62
2022-08-05T09:52:12.641Z,5.49
2022-08-05T09:54:40.772Z,5.65
2022-08-05T09:57:20.571Z,6.08
2022-08-05T09:59:50.540Z,6.47
2022-08-05T10:02:20.816Z,6.61
2022-08-05T10:04:48.165Z,6.82
2022-08-05T10:07:19.975Z,6.62
2022-08-05T10:09:48.434Z,6.45
2022-08-05T10:12:35.971Z,6.54
2022-08-05T10:15:17.328Z,6.51
2022-08-05T10:17:56.814Z,6.11
2022-08-05T10:20:25.152Z,6.51
2022-08-05T10:22:52.773Z,6.23
2022-08-05T10:25:20.603Z,6.35
2022-08-05T10:28:13.291Z,6.09
2022-08-05T10:32:46.947Z,6.17
2022-08-05T10:33:22.340Z,6.11
2022-08-05T10:35:59.748Z,5.66
2022-08-05T10:38:27.312Z,5.89
2022-08-05T10:40:57.983Z,5.98
2022-08-05T10:43:30.850Z,5.76
2022-08-05T10:46:06.427Z,5.90
2022-08-05T10:48:52.895Z,5.41
2022-08-05T10:51:22.884Z,5.35
2022-08-05T10:53:51.276Z,5.46
2022-08-05T10:56:21.575Z,5.26
2022-08-05T10:58:53.057Z,4.88
2022-08-05T11:01:28.215Z,5.05
2022-08-05T11:04:09.564Z,4.88
2022-08-05T11:06:36.828Z,4.84
2022-08-05T11:09:05.120Z,4.23
2022-08-05T11:11:52.751Z,3.97
2022-08-05T11:14:25.588Z,4.33
2022-08-05T11:17:53.339Z,4.34
2022-08-05T11:20:10.335Z,4.32
2022-08-05T11:22:38.960Z,3.84
2022-08-05T11:25:16.795Z,3.84
2022-08-05T11:28:00.525Z,4.47
2022-08-05T11:30:28.228Z,4.17
2022-08-05T11:32:55.865Z,4.13
2022-08-05T11:35:23.181Z,4.27
2022-08-05T11:38:30.973Z,4.09
2022-08-05T11:40:40.789Z,4.42
2022-08-05T11:43:08.073Z,4.55
2022-08-05T11:46:15.386Z,4.60
2022-08-05T11:48:24.433Z,4.05
2022-08-05T11:50:52.287Z,4.13
2022-08-05T11:53:20.230Z,3.99
2022-08-05T11:55:47.499Z,4.22
2022-08-05T11:58:20.901Z,4.34
2022-08-05T12:00:52.811Z,4.06
2022-08-05T12:03:29.436Z,4.32
2022-08-05T12:06:06.030Z,4.06
2022-08-05T12:08:36.907Z,4.04
2022-08-05T12:11:06.616Z,3.93
2022-08-05T12:13:48.919Z,4.21
2022-08-05T12:16:17.032Z,4.24
2022-08-05T12:18:49.450Z,4.15
2022-08-05T12:21:20.515Z,3.99
2022-08-05T12:23:48.318Z,4.33
2022-08-05T12:26:16.637Z,4.33
2022-08-05T12:28:45.195Z,4.46
2022-08-05T12:31:23.176Z,4.51
2022-08-05T12:33:59.763Z,4.31
2022-08-05T12:36:28.744Z,4.28
2022-08-05T12:38:56.159Z,4.30
2022-08-05T12:41:25.457Z,4.39
2022-08-05T12:44:01.868Z,4.27
2022-08-05T12:46:31.236Z,4.16
2022-08-05T12:48:58.807Z,4.36
2022-08-05T12:52:10.309Z,4.50
2022-08-05T12:54:23.198Z,4.46
2022-08-05T12:56:51.162Z,4.52
2022-08-05T12:59:27.621Z,4.51
2022-08-05T13:02:07.386Z,4.57
2022-08-05T13:04:35.491Z,4.68
2022-08-05T13:07:10.448Z,4.83
2022-08-05T13:09:45.104Z,4.56
2022-08-05T13:12:16.284Z,4.88
2022-08-05T13:14:44.266Z,4.98
2022-08-05T13:17:12.039Z,4.94
2022-08-05T13:19:52.383Z,4.97
2022-08-05T13:22:28.504Z,4.79
2022-08-05T13:24:57.906Z,5.12
2022-08-05T13:27:37.718Z,4.74
2022-08-05T13:30:35.460Z,4.82
2022-08-05T13:32:52.985Z,4.69
2022-08-05T13:35:31.288Z,4.98
2022-08-05T13:38:20.234Z,4.81
2022-08-05T13:40:57.810Z,4.93
2022-08-05T13:43:44.189Z,5.06
2022-08-05T13:46:12.669Z,6.34
2022-08-05T13:48:57.769Z,4.98
2022-08-05T13:51:27.239Z,4.93
2022-08-05T13:53:58.114Z,5.15
2022-08-05T13:56:26.423Z,4.87
2022-08-05T13:58:53.941Z,4.79
2022-08-05T14:01:27.209Z,4.82
2022-08-05T14:04:03.646Z,5.04
2022-08-05T14:06:31.430Z,5.06
2022-08-05T14:08:59.494Z,4.95
2022-08-05T14:11:27.040Z,4.97
2022-08-05T14:13:58.628Z,5.18
2022-08-05T14:16:26.378Z,4.91
2022-08-05T14:18:53.683Z,5.44
2022-08-05T14:22:07.257Z,5.23
2022-08-05T14:24:08.201Z,5.13
2022-08-05T14:26:39.015Z,5.07
2022-08-05T14:29:16.478Z,5.18
2022-08-05T14:32:03.778Z,4.84
2022-08-05T14:34:35.655Z,5.06
2022-08-05T14:37:03.008Z,4.38
2022-08-05T14:39:30.308Z,4.72
2022-08-05T14:42:21.926Z,4.85
2022-08-05T14:44:49.355Z,4.98
2022-08-05T14:47:17.289Z,4.87
2022-08-05T14:50:17.442Z,4.98
2022-08-05T14:52:53.001Z,4.76
2022-08-05T14:55:24.026Z,4.79
2022-08-05T14:57:54.553Z,4.86
2022-08-05T15:00:28.197Z,4.86
2022-08-05T15:02:56.779Z,4.62
2022-08-05T15:05:29.935Z,4.73
2022-08-05T15:08:17.924Z,4.70
2022-08-05T15:11:00.659Z,4.72
2022-08-05T15:13:28.552Z,4.76
2022-08-05T15:16:13.682Z,4.72
2022-08-05T15:18:41.312Z,4.64
2022-08-05T15:21:08.614Z,4.62
2022-08-05T15:23:35.907Z,4.66
2022-08-05T15:26:05.377Z,4.38
2022-08-05T15:28:34.540Z,4.43
2022-08-05T15:31:03.537Z,4.78
2022-08-05T15:33:56.417Z,4.53
2022-08-05T15:36:24.481Z,4.76
2022-08-05T15:40:41.081Z,4.56
2022-08-05T15:41:55.910Z,4.78
2022-08-05T15:44:24.797Z,4.85
2022-08-05T15:46:52.931Z,4.75
2022-08-05T15:49:40.978Z,4.74
2022-08-05T15:52:16.885Z,4.78
2022-08-05T15:54:57.498Z,5.30
2022-08-05T15:57:26.797Z,4.72
2022-08-05T16:00:00.451Z,4.97
2022-08-05T16:02:30.179Z,4.90
2022-08-05T16:04:58.552Z,4.92
2022-08-05T16:07:25.854Z,4.56
2022-08-05T16:09:56.970Z,5.14
2022-08-05T16:12:24.407Z,4.96
2022-08-05T16:14:51.856Z,4.84
2022-08-05T16:17:19.117Z,4.85
2022-08-05T16:20:05.693Z,4.76
2022-08-05T16:22:34.226Z,4.65
2022-08-05T16:25:07.945Z,4.80
2022-08-05T16:28:00.195Z,5.17
2022-08-05T16:30:26.249Z,4.96
2022-08-05T16:32:54.097Z,5.04
2022-08-05T16:35:27.597Z,5.09
2022-08-05T16:38:16.315Z,4.90
2022-08-05T16:40:51.761Z,4.74
2022-08-05T16:43:23.908Z,4.90
2022-08-05T16:46:04.278Z,4.73
2022-08-05T16:48:36.350Z,5.05
2022-08-05T16:51:09.492Z,5.24
2022-08-05T16:54:03.946Z,5.18
2022-08-05T16:56:24.839Z,5.09
2022-08-05T16:58:52.209Z,4.99
2022-08-05T17:01:19.563Z,5.12
2022-08-05T17:03:46.870Z,4.75
2022-08-05T17:06:16.557Z,4.97
2022-08-05T17:08:52.800Z,4.60
2022-08-05T17:11:23.442Z,4.69
2022-08-05T17:14:00.550Z,4.43
2022-08-05T17:16:36.821Z,4.80
2022-08-05T17:19:07.176Z,4.51
2022-08-05T17:21:37.147Z,5.07
2022-08-05T17:24:18.418Z,4.76
2022-08-05T17:26:51.876Z,4.70
2022-08-05T17:29:22.583Z,4.78
2022-08-05T17:32:01.415Z,4.50
2022-08-05T17:34:29.952Z,4.40
2022-08-05T17:36:59.429Z,4.41
2022-08-05T17:39:34.631Z,4.27
2022-08-05T17:42:17.419Z,4.76
2022-08-05T17:44:50.526Z,4.70
2022-08-05T17:47:18.711Z,4.74
2022-08-05T17:50:00.562Z,4.93
2022-08-05T17:52:31.757Z,5.07
2022-08-05T17:54:59.020Z,4.87
2022-08-05T17:57:27.789Z,4.73
2022-08-05T18:00:04.982Z,4.91
2022-08-05T18:02:33.188Z,4.96
2022-08-05T18:05:07.598Z,4.87
2022-08-05T18:07:41.477Z,5.04
2022-08-05T18:10:10.371Z,5.04
2022-08-05T18:12:37.856Z,5.12
2022-08-05T18:15:05.131Z,4.95
2022-08-05T18:17:59.723Z,5.12
2022-08-05T18:20:29.220Z,5.35
2022-08-05T18:23:00.606Z,5.08
2022-08-05T18:25:39.431Z,4.40
2022-08-05T18:28:07.170Z,4.85
2022-08-05T18:30:39.085Z,4.83
2022-08-05T18:33:07.666Z,4.61
2022-08-05T18:36:00.981Z,4.69
2022-08-05T18:38:26.358Z,4.15
2022-08-05T18:41:58.149Z,3.99
2022-08-05T18:43:42.705Z,3.89
2022-08-05T18:46:10.588Z,3.91
2022-08-05T18:48:41.374Z,3.89
2022-08-05T18:52:05.982Z,4.04
2022-08-05T18:53:56.641Z,3.95
2022-08-05T18:56:25.189Z,4.09
2022-08-05T18:58:54.832Z,4.14
2022-08-05T19:01:33.314Z,3.66
2022-08-05T19:04:14.421Z,3.96
2022-08-05T19:06:51.504Z,3.80
2022-08-05T19:09:21.351Z,3.93
2022-08-05T19:12:00.497Z,4.07
2022-08-05T19:14:44.425Z,4.24
2022-08-05T19:17:15.907Z,4.28
2022-08-05T19:19:46.485Z,4.08
2022-08-05T19:22:17.116Z,4.37
2022-08-05T19:24:56.324Z,4.26
2022-08-05T19:27:24.232Z,4.09
2022-08-05T19:29:55.362Z,4.05
2022-08-05T19:32:23.501Z,3.81
2022-08-05T19:34:54.760Z,4.02
2022-08-05T19:37:29.769Z,3.86
2022-08-05T19:40:10.681Z,3.81
2022-08-05T19:42:38.869Z,3.98
2022-08-05T19:45:06.604Z,4.02
2022-08-05T19:47:34.043Z,4.08
2022-08-05T19:50:01.447Z,4.19
2022-08-05T19:52:31.849Z,4.28
2022-08-05T19:55:00.620Z,4.67
2022-08-05T19:57:47.551Z,4.57
2022-08-05T20:00:21.831Z,4.06
2022-08-05T20:02:49.203Z,3.63
2022-08-05T20:05:24.312Z,3.53
2022-08-05T20:07:56.307Z,3.85
2022-08-05T20:10:26.267Z,3.68
2022-08-05T20:12:53.654Z,3.54
2022-08-05T20:15:47.796Z,3.48
2022-08-05T20:18:10.780Z,3.39
2022-08-05T20:20:56.306Z,3.70
2022-08-05T20:23:23.855Z,3.47
2022-08-05T20:26:08.063Z,3.24
2022-08-05T20:28:43.960Z,3.41
2022-08-05T20:31:13.058Z,3.19
2022-08-05T20:33:42.420Z,3.42
2022-08-05T20:36:11.966Z,3.43
2022-08-05T20:38:54.338Z,3.39
2022-08-05T20:41:44.211Z,3.15
2022-08-05T20:44:19.403Z,3.19
2022-08-05T20:46:57.372Z,3.19
2022-08-05T20:49:26.158Z,3.32
2022-08-05T20:51:54.098Z,2.96
2022-08-05T20:54:21.614Z,3.17
2022-08-05T20:56:49.064Z,2.89
2022-08-05T20:59:19.283Z,3.07
2022-08-05T21:01:54.251Z,3.09
2022-08-05T21:04:27.082Z,3.23
2022-08-05T21:06:54.550Z,3.16
2022-08-05T21:09:23.082Z,3.08
2022-08-05T21:12:07.229Z,3.11
2022-08-05T21:14:55.696Z,3.17
2022-08-05T21:17:43.303Z,3.23
2022-08-05T21:20:33.582Z,3.02
2022-08-05T21:23:21.763Z,2.91
2022-08-05T21:26:14.330Z,2.99
2022-08-05T21:29:03.571Z,2.94
2022-08-05T21:31:51.663Z,2.83
2022-08-05T21:34:39.246Z,2.78
2022-08-05T21:37:29.015Z,2.76
2022-08-05T21:40:16.775Z,3.12
2022-08-05T21:43:05.564Z,3.03
2022-08-05T21:45:57.381Z,3.07
2022-08-05T21:48:47.988Z,3.04
2022-08-05T21:52:22.000Z,2.82
2022-08-05T21:54:44.482Z,3.12
2022-08-05T21:57:42.564Z,2.78
2022-08-05T22:00:30.516Z,3.09
2022-08-05T22:03:18.214Z,3.13
2022-08-05T22:06:35.622Z,3.25
2022-08-05T22:09:46.101Z,3.08
2022-08-05T22:12:34.055Z,3.30
2022-08-05T22:16:00.482Z,3.43
2022-08-05T22:18:35.598Z,3.35
2022-08-05T22:21:23.193Z,3.06
2022-08-05T22:24:13.195Z,3.10
2022-08-05T22:27:18.361Z,3.44
2022-08-05T22:30:06.017Z,3.24
2022-08-05T22:32:55.402Z,3.63
2022-08-05T22:35:48.718Z,3.79
2022-08-05T22:38:36.999Z,3.58
2022-08-05T22:41:26.187Z,3.67
2022-08-05T22:44:33.063Z,3.55
2022-08-05T22:47:30.004Z,3.76
2022-08-05T22:50:23.307Z,3.85
2022-08-05T22:53:15.961Z,3.60
2022-08-05T22:56:04.346Z,3.54
2022-08-05T22:58:57.541Z,3.59
2022-08-05T23:02:04.237Z,3.59
2022-08-05T23:04:53.955Z,3.45
2022-08-05T23:07:45.495Z,3.32
2022-08-05T23:10:36.024Z,3.18
2022-08-05T23:13:26.532Z,3.34
2022-08-05T23:16:14.126Z,3.30
2022-08-05T23:19:14.519Z,3.48
2022-08-05T23:22:13.399Z,3.51
2022-08-05T23:25:07.294Z,3.29
2022-08-05T23:28:00.241Z,3.20
2022-08-05T23:30:53.339Z,3.33
2022-08-05T23:34:04.446Z,3.09
2022-08-05T23:36:50.910Z,2.62
2022-08-05T23:39:53.339Z,2.97
2022-08-05T23:42:41.696Z,2.66
2022-08-05T23:45:35.212Z,2.81
2022-08-05T23:48:26.421Z,2.82
2022-08-05T23:51:15.209Z,2.64
2022-08-05T23:54:03.563Z,2.67
2022-08-05T23:56:51.906Z,2.95
